Time;durP1;ratioP1;P1;durP2;ratioP2;P2;SDS_P1;SDS_P2;PMS_P1;PMS_P2;Temp;Humidity;BMP_temperature;BMP_pressure;BME280_temperature;BME280_humidity;BME280_pressure;Samples;Min_cycle;Max_cycle;Signal;HPM_P1;HPM_P2
2022/09/04 00:00:07;;;;;;;9.45;4.85;;;;;;;20.33;60.97;101160.19;5283295;28;20033;-73
2022/09/04 00:03:01;;;;;;;6.97;5.72;;;;;;;20.31;61.37;101160.25;5273951;28;20408;-73
2022/09/04 00:05:44;;;;;;;10.18;5.72;;;;;;;20.27;62.66;101156.06;5283357;28;20461;-73
2022/09/04 00:08:34;;;;;;;8.80;5.90;;;;;;;20.00;63.49;101167.00;5283155;28;20052;-73
2022/09/04 00:11:33;;;;;;;10.65;5.65;;;;;;;20.14;62.84;101166.38;5282953;28;20045;-73
2022/09/04 00:14:12;;;;;;;11.15;5.75;;;;;;;20.08;63.17;101174.59;5282557;28;20397;-73
2022/09/04 00:16:53;;;;;;;8.82;6.28;;;;;;;20.00;63.87;101169.63;5282887;28;20352;-73
2022/09/04 00:19:34;;;;;;;10.32;5.90;;;;;;;19.74;64.18;101168.16;5282481;28;20036;-73
2022/09/04 00:22:51;;;;;;;9.50;6.13;;;;;;;20.01;62.76;101175.78;5282821;28;20035;-73
2022/09/04 00:25:39;;;;;;;9.45;6.03;;;;;;;19.71;64.45;101172.75;5283157;28;20040;-73
2022/09/04 00:28:52;;;;;;;9.48;5.22;;;;;;;19.90;63.71;101173.66;5282943;28;20028;-72
2022/09/04 00:31:27;;;;;;;7.57;5.35;;;;;;;19.58;65.48;101178.56;5257219;28;20040;-73
2022/09/04 00:34:08;;;;;;;8.25;5.65;;;;;;;19.56;65.42;101185.72;5282210;28;20107;-73
2022/09/04 00:36:44;;;;;;;8.13;5.20;;;;;;;19.61;65.75;101175.78;5281980;28;20371;-72
2022/09/04 00:39:22;;;;;;;8.23;5.30;;;;;;;19.78;65.12;101184.78;5282567;28;20128;-73
2022/09/04 00:42:33;;;;;;;9.43;5.78;;;;;;;19.78;64.57;101177.69;5282462;28;20471;-73
2022/09/04 00:45:16;;;;;;;7.85;5.88;;;;;;;19.47;66.52;101179.03;5285708;28;20032;-73
2022/09/04 00:48:06;;;;;;;8.77;5.55;;;;;;;19.53;65.78;101179.69;5286820;28;20032;-72
2022/09/04 00:51:02;;;;;;;8.23;5.35;;;;;;;19.49;66.37;101187.75;5286294;28;20035;-72
2022/09/04 00:54:11;;;;;;;7.05;5.32;;;;;;;19.49;65.81;101190.38;5265811;28;20102;-72
2022/09/04 00:56:54;;;;;;;8.63;5.20;;;;;;;19.31;67.56;101188.56;5265659;28;20372;-72
2022/09/04 01:00:01;;;;;;;7.43;5.25;;;;;;;19.34;66.71;101193.72;5265379;28;20043;-72
2022/09/04 01:02:51;;;;;;;9.88;5.03;;;;;;;19.39;66.48;101198.81;5275551;28;20040;-72
2022/09/04 01:06:00;;;;;;;7.57;5.75;;;;;;;19.11;67.60;101190.25;5285899;28;20063;-72
2022/09/04 01:08:49;;;;;;;9.85;5.30;;;;;;;19.21;67.85;101196.03;5285300;28;20039;-72
2022/09/04 01:11:33;;;;;;;11.70;5.18;;;;;;;18.97;68.62;101200.56;5284350;28;20113;-72
2022/09/04 01:14:33;;;;;;;11.95;5.53;;;;;;;19.02;67.93;101195.94;5284388;28;20436;-72
2022/09/04 01:17:18;;;;;;;8.20;5.32;;;;;;;18.96;68.88;101204.09;5285670;28;20024;-72
2022/09/04 01:19:49;;;;;;;8.90;5.32;;;;;;;18.79;69.53;101210.06;5274783;28;20036;-73
2022/09/04 01:22:45;;;;;;;8.53;5.10;;;;;;;18.87;68.98;101218.56;5263754;28;20411;-72
2022/09/04 01:25:52;;;;;;;8.25;4.93;;;;;;;19.01;68.84;101222.41;5285202;28;20034;-72
2022/09/04 01:28:46;;;;;;;7.63;5.20;;;;;;;18.71;70.10;101218.28;5277392;28;20531;-72
2022/09/04 01:31:45;;;;;;;8.68;5.68;;;;;;;18.78;69.46;101224.19;5285562;28;20460;-72
2022/09/04 01:34:42;;;;;;;6.50;4.85;;;;;;;18.97;68.34;101224.31;5285894;28;20081;-74
2022/09/04 01:37:50;;;;;;;5.90;4.78;;;;;;;18.68;69.83;101223.69;5285571;28;20035;-74
2022/09/04 01:40:35;;;;;;;5.80;4.57;;;;;;;18.86;69.22;101218.63;5283813;28;20034;-71
2022/09/04 01:43:17;;;;;;;7.20;5.55;;;;;;;18.71;70.20;101223.56;5285703;28;20104;-73
2022/09/04 01:45:57;;;;;;;9.18;4.47;;;;;;;18.49;70.75;101231.47;5285626;28;20463;-73
2022/09/04 01:48:52;;;;;;;8.20;5.28;;;;;;;18.79;69.21;101225.91;5285600;28;20123;-73
2022/09/04 01:51:44;;;;;;;6.90;4.88;;;;;;;18.68;69.95;101230.75;5284925;28;20056;-72
2022/09/04 01:54:39;;;;;;;8.73;5.20;;;;;;;18.68;70.14;101230.75;5284972;28;20032;-73
2022/09/04 01:57:31;;;;;;;6.43;5.00;;;;;;;18.77;70.26;101222.44;5285179;28;20079;-73
2022/09/04 02:00:15;;;;;;;8.88;5.32;;;;;;;18.58;71.25;101236.38;5285492;28;20427;-73
2022/09/04 02:03:32;;;;;;;6.03;5.00;;;;;;;18.65;70.47;101231.72;5285209;28;20518;-73
2022/09/04 02:06:20;;;;;;;7.22;5.18;;;;;;;18.55;71.63;101244.44;5285119;28;20075;-73
2022/09/04 02:09:26;;;;;;;5.88;4.78;;;;;;;18.64;70.51;101240.56;5288126;28;20020;-72
2022/09/04 02:12:36;;;;;;;6.32;5.43;;;;;;;18.47;71.32;101254.44;5285486;28;20139;-73
2022/09/04 02:15:32;;;;;;;7.60;4.65;;;;;;;18.35;72.51;101260.16;5284662;28;20029;-73
2022/09/04 02:18:25;;;;;;;6.32;5.10;;;;;;;18.26;72.73;101263.13;5283838;28;20035;-73
2022/09/04 02:21:34;;;;;;;5.65;5.00;;;;;;;18.16;73.12;101260.88;5284469;28;20035;-73
2022/09/04 02:24:27;;;;;;;7.03;4.90;;;;;;;18.12;73.79;101256.59;5284832;28;20028;-73
2022/09/04 02:27:07;;;;;;;9.82;5.00;;;;;;;18.15;74.28;101260.91;5284592;28;20166;-73
2022/09/04 02:29:50;;;;;;;6.47;4.82;;;;;;;17.95;74.56;101265.16;5283490;28;20032;-72
2022/09/04 02:32:31;;;;;;;12.25;5.07;;;;;;;17.85;75.50;101269.84;5284422;28;20066;-72
2022/09/04 02:35:13;;;;;;;8.02;4.95;;;;;;;18.04;74.86;101267.44;5284841;28;20028;-72
2022/09/04 02:38:10;;;;;;;6.47;5.20;;;;;;;17.78;75.30;101270.97;5284760;28;20032;-73
2022/09/04 02:40:54;;;;;;;9.82;5.35;;;;;;;18.01;75.29;101272.81;5284329;28;20051;-73
2022/09/04 02:43:34;;;;;;;6.13;5.32;;;;;;;17.93;75.96;101274.88;5284600;28;20349;-73
2022/09/04 02:46:25;;;;;;;6.22;5.40;;;;;;;17.92;75.97;101275.81;5284347;28;20105;-74
2022/09/04 02:49:01;;;;;;;7.10;5.85;;;;;;;17.92;76.98;101282.84;5284407;28;20024;-73
2022/09/04 02:52:03;;;;;;;7.60;6.00;;;;;;;17.87;76.92;101285.63;5283305;28;20119;-73
2022/09/04 02:54:59;;;;;;;9.03;6.07;;;;;;;17.91;77.66;101286.41;5283677;28;20534;-73
2022/09/04 02:57:55;;;;;;;7.55;6.10;;;;;;;17.72;78.20;101289.63;5283126;28;20283;-72
2022/09/04 03:00:41;;;;;;;6.55;5.38;;;;;;;17.94;77.40;101291.56;5284999;28;20108;-72
2022/09/04 03:03:23;;;;;;;11.00;5.63;;;;;;;17.84;78.27;101293.66;5284523;28;20367;-73
2022/09/04 03:06:07;;;;;;;11.13;6.05;;;;;;;17.91;78.23;101289.03;5283786;28;20033;-73
2022/09/04 03:08:52;;;;;;;6.20;5.38;;;;;;;17.86;78.02;101295.28;5283993;28;20060;-72
2022/09/04 03:11:42;;;;;;;5.78;5.18;;;;;;;17.83;78.01;101295.41;5283788;28;20386;-73
2022/09/04 03:14:23;;;;;;;7.68;5.88;;;;;;;17.86;78.52;101290.03;5283836;28;20040;-72
2022/09/04 03:17:04;;;;;;;8.07;5.80;;;;;;;17.73;79.92;101296.66;5283860;28;20059;-73
2022/09/04 03:19:45;;;;;;;6.78;5.88;;;;;;;17.84;79.13;101301.56;5282906;28;20550;-73
2022/09/04 03:22:32;;;;;;;7.05;5.80;;;;;;;17.74;79.31;101302.78;5282489;28;20028;-73
2022/09/04 03:25:26;;;;;;;8.93;5.50;;;;;;;17.74;79.44;101303.66;5283726;28;20353;-73
2022/09/04 03:27:59;;;;;;;7.53;5.43;;;;;;;17.71;80.05;101305.50;5272638;28;20117;-72
2022/09/04 03:30:35;;;;;;;9.10;5.43;;;;;;;17.72;80.22;101301.97;5282201;28;20535;-73
2022/09/04 03:33:38;;;;;;;7.53;5.38;;;;;;;17.63;80.17;101298.75;5283068;28;20032;-73
2022/09/04 03:36:35;;;;;;;;;;;;;;;17.67;77.60;101297.69;5282806;28;20495;-73
2022/09/04 03:39:35;;;;;;;8.35;6.18;;;;;;;17.46;81.11;101304.56;5274210;28;19912;-73
2022/09/04 03:42:26;;;;;;;7.13;5.28;;;;;;;17.50;81.37;101307.97;5262806;28;20040;-74
2022/09/04 03:45:10;;;;;;;9.43;6.28;;;;;;;17.39;81.92;101294.28;5262452;28;20029;-74
2022/09/04 03:48:03;;;;;;;8.95;5.63;;;;;;;17.47;81.75;101303.66;5262605;28;20078;-73
2022/09/04 03:50:46;;;;;;;8.80;5.68;;;;;;;17.52;81.50;101306.16;5267080;28;20024;-73
2022/09/04 03:53:55;;;;;;;6.55;5.85;;;;;;;17.43;81.54;101309.09;5284125;28;20415;-73
2022/09/04 03:56:48;;;;;;;6.20;5.40;;;;;;;17.25;82.98;101311.41;5279443;28;20454;-73
2022/09/04 03:59:41;;;;;;;6.57;5.45;;;;;;;17.36;82.12;101320.75;5283242;28;20032;-73
2022/09/04 04:02:44;;;;;;;8.02;6.40;;;;;;;17.41;82.13;101319.66;5282663;28;20129;-73
2022/09/04 04:05:24;;;;;;;8.27;6.20;;;;;;;17.44;82.54;101316.94;5281876;28;20123;-73
2022/09/04 04:08:14;;;;;;;7.65;5.70;;;;;;;17.47;82.22;101316.00;5282959;28;20028;-73
2022/09/04 04:11:15;;;;;;;9.70;5.95;;;;;;;17.31;82.88;101320.91;5282618;28;20056;-73
2022/09/04 04:13:58;;;;;;;6.57;5.72;;;;;;;17.36;82.46;101323.38;5282888;28;20376;-73
2022/09/04 04:16:41;;;;;;;6.68;5.78;;;;;;;17.23;83.53;101325.56;5282639;28;20037;-73
2022/09/04 04:19:34;;;;;;;9.02;6.32;;;;;;;17.22;83.56;101335.22;5282547;28;20519;-72
2022/09/04 04:22:31;;;;;;;7.28;6.57;;;;;;;17.23;83.31;101333.47;5282248;28;20024;-72
2022/09/04 04:25:27;;;;;;;7.15;6.30;;;;;;;17.22;84.10;101343.13;5282662;28;20032;-72
2022/09/04 04:28:34;;;;;;;8.73;6.43;;;;;;;17.17;84.27;101347.66;5282918;28;20063;-72
2022/09/04 04:31:16;;;;;;;7.43;6.30;;;;;;;17.14;84.59;101345.13;5282508;28;20028;-72
2022/09/04 04:33:58;;;;;;;8.80;5.93;;;;;;;17.20;84.66;101344.94;5282168;28;20029;-73
2022/09/04 04:37:12;;;;;;;6.60;6.00;;;;;;;17.10;84.13;101341.75;5282929;28;20033;-74
2022/09/04 04:39:57;;;;;;;8.32;5.60;;;;;;;17.02;84.93;101341.13;5262115;28;20033;-74
2022/09/04 04:42:40;;;;;;;9.00;6.00;;;;;;;16.99;84.93;101346.47;5282867;28;20067;-73
2022/09/04 04:48:46;;;;;;;8.52;6.68;;;;;;;16.94;85.35;101351.03;5282297;28;20067;-73
2022/09/04 04:51:39;;;;;;;7.50;6.30;;;;;;;17.01;84.52;101344.66;5282011;28;20033;-74
2022/09/04 04:54:50;;;;;;;8.45;6.28;;;;;;;16.97;85.47;101352.69;5282241;28;20024;-73
2022/09/04 04:57:54;;;;;;;7.70;6.88;;;;;;;16.97;85.27;101358.84;5269946;28;20392;-74
2022/09/04 05:00:40;;;;;;;8.95;6.82;;;;;;;16.88;85.99;101359.97;5281995;28;20032;-73
2022/09/04 05:03:31;;;;;;;8.23;7.40;;;;;;;16.80;86.38;101361.94;5281579;28;20036;-73
2022/09/04 05:06:30;;;;;;;8.95;7.28;;;;;;;16.74;86.91;101373.53;5282424;28;20031;-73
2022/09/04 05:09:15;;;;;;;7.75;6.88;;;;;;;16.78;86.95;101375.13;5282173;28;20032;-72
2022/09/04 05:11:50;;;;;;;10.63;7.25;;;;;;;16.71;86.78;101377.97;5282282;28;20090;-73
2022/09/04 05:14:48;;;;;;;8.02;6.95;;;;;;;16.77;86.96;101388.34;5282109;28;20021;-72
2022/09/04 05:17:37;;;;;;;8.32;7.50;;;;;;;16.81;87.14;101387.38;5282143;28;20444;-73
2022/09/04 05:20:42;;;;;;;10.52;7.57;;;;;;;16.69;87.66;101383.28;5281263;28;20078;-73
2022/09/04 05:23:49;;;;;;;8.70;7.80;;;;;;;16.82;87.07;101385.59;5281728;28;20056;-73
2022/09/04 05:26:35;;;;;;;12.20;7.20;;;;;;;16.87;87.53;101396.88;5282025;28;20467;-73
2022/09/04 05:29:59;;;;;;;8.98;7.53;;;;;;;16.93;86.92;101410.72;5281698;28;20420;-73
2022/09/04 05:32:53;;;;;;;9.52;7.75;;;;;;;16.98;87.21;101417.63;5283740;28;20051;-74
2022/09/04 05:35:42;;;;;;;10.98;7.82;;;;;;;16.95;87.86;101413.31;5287368;28;20032;-73
2022/09/04 05:38:33;;;;;;;9.48;8.57;;;;;;;16.91;88.19;101411.69;5285356;28;20032;-72
2022/09/04 05:41:09;;;;;;;14.27;9.63;;;;;;;16.99;87.90;101420.22;5285688;28;20032;-73
2022/09/04 05:44:34;;;;;;;10.82;7.72;;;;;;;17.12;87.08;101421.56;5285438;28;20078;-73
2022/09/04 05:47:10;;;;;;;9.63;7.53;;;;;;;17.18;87.59;101420.53;5241272;28;20060;-74
2022/09/04 05:49:48;;;;;;;8.07;7.25;;;;;;;17.11;87.90;101427.78;5275421;28;20033;-72
2022/09/04 05:52:31;;;;;;;12.02;8.35;;;;;;;17.26;87.30;101426.44;5285272;28;20418;-71
2022/09/04 05:55:20;;;;;;;9.93;7.95;;;;;;;17.36;87.01;101439.34;5285334;28;20028;-72
2022/09/04 05:58:18;;;;;;;9.98;8.05;;;;;;;17.26;87.75;101439.59;5284814;28;20052;-71
2022/09/04 06:01:15;;;;;;;9.82;8.57;;;;;;;17.33;87.57;101444.69;5279770;28;20493;-71
2022/09/04 06:04:05;;;;;;;10.07;8.82;;;;;;;17.30;87.85;101441.22;5280027;28;20036;-71
2022/09/04 06:06:43;;;;;;;12.55;9.02;;;;;;;17.35;87.53;101445.50;5284956;28;20426;-71
2022/09/04 06:09:31;;;;;;;11.25;8.48;;;;;;;17.35;87.60;101454.25;5283349;28;20032;-72
2022/09/04 06:12:44;;;;;;;10.63;8.43;;;;;;;17.36;87.95;101448.09;5278967;28;20195;-72
2022/09/04 06:15:21;;;;;;;12.05;8.93;;;;;;;17.47;88.04;101458.31;5279797;28;20111;-71
2022/09/04 06:18:14;;;;;;;11.90;9.20;;;;;;;17.51;87.70;101444.13;5283991;28;20020;-72
2022/09/04 06:21:10;;;;;;;12.05;9.43;;;;;;;17.49;87.31;101448.59;5282059;28;20036;-72
2022/09/04 06:24:08;;;;;;;11.43;8.70;;;;;;;17.56;87.35;101451.88;5283521;28;20122;-71
2022/09/04 06:27:05;;;;;;;11.73;9.70;;;;;;;17.58;86.81;101460.59;5283262;28;20029;-71
2022/09/04 06:30:03;;;;;;;11.10;9.02;;;;;;;17.70;87.52;101459.38;5283776;28;20028;-72
2022/09/04 06:32:56;;;;;;;9.75;8.75;;;;;;;17.72;87.00;101461.03;5259266;28;20041;-71
2022/09/04 06:35:35;;;;;;;9.38;8.23;;;;;;;17.71;87.77;101461.97;5260927;28;20051;-71
2022/09/04 06:38:13;;;;;;;10.50;8.90;;;;;;;17.89;87.32;101454.38;5261986;28;20037;-72
2022/09/04 06:40:53;;;;;;;9.82;8.82;;;;;;;17.96;87.10;101461.19;5262918;28;20032;-72
2022/09/04 06:43:48;;;;;;;13.45;9.25;;;;;;;18.02;86.82;101467.13;5265256;28;20029;-72
2022/09/04 06:46:41;;;;;;;10.55;9.45;;;;;;;18.11;86.46;101468.59;5282832;28;20032;-72
2022/09/04 06:49:21;;;;;;;10.95;8.77;;;;;;;18.15;86.80;101467.56;5282601;28;20344;-72
2022/09/04 06:52:13;;;;;;;10.65;9.27;;;;;;;18.27;86.01;101465.44;5281459;28;20084;-72
2022/09/04 06:54:50;;;;;;;10.90;9.05;;;;;;;18.39;85.75;101468.50;5282586;28;20052;-72
2022/09/04 06:57:58;;;;;;;11.95;9.82;;;;;;;18.53;84.90;101477.72;5281759;28;20060;-73
2022/09/04 07:00:39;;;;;;;10.50;9.40;;;;;;;18.59;85.07;101472.22;5282706;28;20052;-73
2022/09/04 07:03:27;;;;;;;10.23;9.23;;;;;;;18.67;85.07;101474.59;5281329;28;20040;-72
2022/09/04 07:06:17;;;;;;;13.13;9.85;;;;;;;18.72;85.84;101475.28;5281784;28;20032;-72
2022/09/04 07:09:13;;;;;;;10.70;9.60;;;;;;;18.81;85.73;101474.13;5281589;28;20546;-72
2022/09/04 07:12:23;;;;;;;13.80;10.43;;;;;;;18.89;83.84;101480.00;5281307;28;20522;-72
2022/09/04 07:14:54;;;;;;;10.73;9.63;;;;;;;19.06;83.68;101493.47;5258603;28;20121;-71
2022/09/04 07:17:52;;;;;;;10.63;9.37;;;;;;;19.18;83.17;101489.50;5278645;28;20535;-70
2022/09/04 07:20:33;;;;;;;11.32;10.15;;;;;;;19.25;82.78;101496.25;5274049;28;20186;-70
2022/09/04 07:23:31;;;;;;;12.55;10.57;;;;;;;19.40;82.45;101502.78;5267603;28;20036;-71
2022/09/04 07:26:25;;;;;;;14.75;11.02;;;;;;;19.46;81.85;101499.00;5279449;28;20024;-72
2022/09/04 07:29:19;;;;;;;12.73;9.95;;;;;;;19.61;81.39;101500.19;5279962;28;20444;-72
2022/09/04 07:32:10;;;;;;;12.13;10.68;;;;;;;19.61;80.62;101505.47;5282069;28;20029;-72
2022/09/04 07:35:12;;;;;;;14.25;11.50;;;;;;;19.66;80.55;101498.25;5280721;28;20044;-72
2022/09/04 07:37:51;;;;;;;15.80;12.63;;;;;;;19.69;79.79;101519.28;5281119;28;20132;-72
2022/09/04 07:40:31;;;;;;;13.27;11.88;;;;;;;19.84;80.47;101517.84;5282812;28;20104;-73
2022/09/04 07:43:14;;;;;;;14.57;11.98;;;;;;;20.09;79.76;101514.19;5281076;28;20032;-72
2022/09/04 07:45:49;;;;;;;;;;;;;;;20.26;77.96;101519.66;5282564;28;20451;-72
2022/09/04 07:48:45;;;;;;;13.30;11.38;;;;;;;20.19;79.17;101524.34;5282291;28;19913;-72
2022/09/04 07:51:24;;;;;;;14.45;12.10;;;;;;;20.19;77.73;101520.84;5280634;28;20017;-72
2022/09/04 07:54:28;;;;;;;14.80;11.52;;;;;;;20.22;78.15;101526.00;5282347;28;20044;-72
2022/09/04 07:57:26;;;;;;;14.60;13.07;;;;;;;20.30;78.04;101526.56;5283271;28;20072;-71
2022/09/04 08:00:00;;;;;;;16.05;12.50;;;;;;;20.38;77.23;101529.75;5283047;28;20029;-72
2022/09/04 08:02:55;;;;;;;15.02;12.60;;;;;;;20.53;78.13;101528.22;5282840;28;20068;-72
2022/09/04 08:05:30;;;;;;;14.77;12.43;;;;;;;20.65;78.05;101524.22;5282598;28;20098;-72
2022/09/04 08:08:31;;;;;;;12.75;11.23;;;;;;;20.90;77.41;101524.00;5282773;28;20078;-72
2022/09/04 08:11:26;;;;;;;12.45;10.95;;;;;;;21.05;76.52;101529.56;5280089;28;20055;-72
2022/09/04 08:14:20;;;;;;;15.82;11.82;;;;;;;21.44;75.72;101534.78;5282781;28;20040;-72
2022/09/04 08:17:30;;;;;;;15.68;12.43;;;;;;;21.55;74.09;101536.13;5281613;28;20136;-71
2022/09/04 08:20:48;;;;;;;14.85;11.65;;;;;;;21.74;73.77;101538.78;5281804;28;20048;-72
2022/09/04 08:23:23;;;;;;;19.52;12.13;;;;;;;21.71;74.49;101542.44;5282847;28;20060;-72
2022/09/04 08:25:57;;;;;;;13.05;11.50;;;;;;;21.86;73.05;101543.47;5282231;28;20523;-73
2022/09/04 08:29:05;;;;;;;13.82;12.10;;;;;;;21.85;72.10;101547.94;5282601;28;20082;-72
2022/09/04 08:31:54;;;;;;;12.85;11.15;;;;;;;21.96;73.19;101554.50;5282460;28;20036;-72
2022/09/04 08:34:37;;;;;;;16.65;12.30;;;;;;;21.96;71.54;101555.41;5282445;28;20033;-72
2022/09/04 08:37:23;;;;;;;12.43;9.90;;;;;;;22.04;71.14;101557.66;5282209;28;20123;-72
2022/09/04 08:40:10;;;;;;;11.52;9.85;;;;;;;22.24;70.52;101561.16;5282112;28;20202;-72
2022/09/04 08:43:19;;;;;;;13.48;10.43;;;;;;;22.40;71.45;101556.81;5281082;28;20167;-72
2022/09/04 08:46:10;;;;;;;11.05;9.95;;;;;;;22.54;70.51;101553.44;5281940;28;20035;-71
2022/09/04 08:49:00;;;;;;;11.43;9.43;;;;;;;22.62;72.54;101558.38;5282579;28;20100;-72
2022/09/04 08:51:47;;;;;;;13.43;10.27;;;;;;;22.64;67.78;101560.03;5281086;28;20137;-72
2022/09/04 08:55:14;;;;;;;11.43;9.50;;;;;;;22.71;68.73;101564.06;5282823;28;20059;-72
2022/09/04 08:58:10;;;;;;;15.35;8.52;;;;;;;22.72;67.76;101570.28;5282597;28;20328;-72
2022/09/04 09:01:00;;;;;;;10.55;7.20;;;;;;;22.91;68.13;101567.50;5283174;28;20052;-74
2022/09/04 09:03:46;;;;;;;11.60;7.22;;;;;;;23.21;66.93;101569.50;5282435;28;20087;-71
2022/09/04 09:06:23;;;;;;;13.68;7.70;;;;;;;23.37;67.24;101578.38;5285567;28;20052;-72
2022/09/04 09:09:00;;;;;;;12.95;8.43;;;;;;;23.62;64.30;101577.91;5286071;28;20075;-73
2022/09/04 09:11:52;;;;;;;10.25;7.38;;;;;;;24.33;65.20;101573.94;5285750;28;20048;-72
2022/09/04 09:15:06;;;;;;;8.55;7.03;;;;;;;25.17;62.41;101568.97;5284698;28;20064;-72
2022/09/04 09:17:53;;;;;;;7.47;5.53;;;;;;;25.96;56.97;101570.22;5286239;28;20029;-72
2022/09/04 09:20:37;;;;;;;8.48;5.93;;;;;;;25.77;54.81;101570.56;5284144;28;20082;-72
2022/09/04 09:23:35;;;;;;;10.20;4.97;;;;;;;26.32;57.33;101560.75;5285692;28;20032;-73
2022/09/04 09:26:22;;;;;;;6.75;5.00;;;;;;;26.95;52.33;101558.28;5267927;28;20392;-73
2022/09/04 09:29:32;;;;;;;6.47;5.03;;;;;;;27.64;54.99;101556.94;5285871;28;20086;-72
2022/09/04 09:32:09;;;;;;;10.40;5.10;;;;;;;28.42;49.38;101561.94;5284450;28;20439;-72
2022/09/04 09:35:20;;;;;;;5.25;4.20;;;;;;;29.05;49.67;101560.63;5285786;28;20108;-72
2022/09/04 09:38:01;;;;;;;6.72;4.35;;;;;;;28.71;47.17;101559.75;5285342;28;20399;-72
2022/09/04 09:40:48;;;;;;;6.88;4.68;;;;;;;28.88;46.85;101564.66;5285732;28;20028;-71
2022/09/04 09:43:29;;;;;;;6.00;3.67;;;;;;;29.30;46.61;101566.75;5285172;28;20090;-71
2022/09/04 09:46:31;;;;;;;5.07;3.72;;;;;;;30.14;44.80;101563.53;5285834;28;20028;-72
2022/09/04 09:49:29;;;;;;;6.38;3.60;;;;;;;29.88;43.37;101561.16;5285593;28;20444;-71
2022/09/04 09:52:28;;;;;;;5.90;3.45;;;;;;;29.60;45.46;101568.78;5284415;28;20056;-71
2022/09/04 09:55:44;;;;;;;5.53;3.97;;;;;;;29.94;42.89;101565.19;5285274;28;20043;-72
2022/09/04 09:59:04;;;;;;;7.68;4.43;;;;;;;30.29;43.08;101570.31;5285166;28;20028;-74
2022/09/04 10:01:48;;;;;;;4.55;3.40;;;;;;;29.39;41.88;101573.22;5261999;28;20036;-72
2022/09/04 10:04:45;;;;;;;6.90;4.18;;;;;;;28.09;45.78;101575.09;5283125;28;20040;-72
2022/09/04 10:07:31;;;;;;;6.18;4.28;;;;;;;28.71;46.31;101575.84;5285148;28;20113;-71
2022/09/04 10:10:09;;;;;;;5.28;3.53;;;;;;;29.51;43.22;101569.53;5284854;28;20432;-72
2022/09/04 10:13:19;;;;;;;4.85;3.10;;;;;;;29.17;45.21;101574.03;5282507;28;20436;-72
2022/09/04 10:16:14;;;;;;;3.65;2.78;;;;;;;29.31;45.56;101571.16;5278909;28;20036;-73
2022/09/04 10:19:07;;;;;;;5.30;3.67;;;;;;;28.96;42.60;101568.53;5257980;28;20041;-73
2022/09/04 10:22:15;;;;;;;5.63;3.00;;;;;;;29.58;43.10;101569.91;5263219;28;20107;-73
2022/09/04 10:25:19;;;;;;;4.45;2.67;;;;;;;30.76;42.49;101566.41;5262660;28;20033;-73
2022/09/04 10:28:18;;;;;;;4.10;2.20;;;;;;;30.23;41.74;101578.88;5263759;28;20102;-73
2022/09/04 10:31:11;;;;;;;3.53;2.40;;;;;;;29.74;41.90;101573.03;5282615;28;20032;-74
2022/09/04 10:34:28;;;;;;;4.32;2.17;;;;;;;30.85;38.21;101566.47;5281916;28;20388;-73
2022/09/04 10:37:32;;;;;;;6.13;2.30;;;;;;;32.34;39.39;101575.69;5282799;28;20044;-73
2022/09/04 10:40:42;;;;;;;5.90;2.67;;;;;;;32.88;33.55;101573.34;5282778;28;20032;-74
2022/09/04 10:43:26;;;;;;;2.53;2.13;;;;;;;33.79;34.12;101578.06;5282702;28;20070;-74
2022/09/04 10:46:23;;;;;;;5.95;2.10;;;;;;;34.79;31.56;101576.06;5282323;28;20521;-73
2022/09/04 10:49:05;;;;;;;5.78;2.50;;;;;;;34.57;33.05;101576.56;5280871;28;20116;-73
2022/09/04 10:51:45;;;;;;;2.97;2.25;;;;;;;34.86;32.42;101570.88;5280888;28;20084;-74
2022/09/04 10:54:29;;;;;;;2.85;2.13;;;;;;;34.28;31.76;101575.88;5281102;28;20102;-73
2022/09/04 10:57:32;;;;;;;3.47;2.47;;;;;;;33.56;32.89;101573.06;5281364;28;20028;-73
2022/09/04 11:00:15;;;;;;;4.65;2.60;;;;;;;31.44;32.81;101572.13;5280776;28;20021;-73
2022/09/04 11:03:13;;;;;;;3.65;2.50;;;;;;;30.67;35.96;101570.75;5282745;28;20123;-73
2022/09/04 11:05:47;;;;;;;3.33;2.63;;;;;;;31.35;35.79;101570.25;5283916;28;20357;-73
2022/09/04 11:08:57;;;;;;;4.95;2.70;;;;;;;31.37;35.81;101560.19;5282865;28;20490;-73
2022/09/04 11:11:43;;;;;;;7.95;3.38;;;;;;;32.21;36.86;101569.75;5283019;28;20045;-72
2022/09/04 11:14:36;;;;;;;5.43;2.53;;;;;;;33.14;33.27;101559.19;5274513;28;20391;-73
2022/09/04 11:17:32;;;;;;;3.55;2.58;;;;;;;32.74;33.71;101566.56;5279825;28;20021;-73
2022/09/04 11:20:28;;;;;;;5.43;2.50;;;;;;;32.82;34.25;101571.25;5280740;28;20036;-75
2022/09/04 11:23:29;;;;;;;4.95;2.38;;;;;;;31.68;34.43;101568.25;5282181;28;20479;-74
2022/09/04 11:26:26;;;;;;;4.47;2.35;;;;;;;32.79;35.62;101571.53;5282644;28;20425;-73
2022/09/04 11:29:28;;;;;;;6.40;2.85;;;;;;;33.29;31.07;101556.88;5279608;28;20047;-73
2022/09/04 11:32:21;;;;;;;3.60;2.30;;;;;;;32.71;28.86;101572.25;5282338;28;20076;-73
2022/09/04 11:35:30;;;;;;;3.80;2.50;;;;;;;33.77;30.31;101563.88;5280229;28;20028;-74
2022/09/04 11:38:18;;;;;;;6.13;3.28;;;;;;;32.44;29.35;101570.28;5279010;28;20475;-73
2022/09/04 11:41:08;;;;;;;7.22;2.85;;;;;;;31.50;30.75;101568.88;5270576;28;20063;-73
2022/09/04 11:43:45;;;;;;;5.20;2.72;;;;;;;31.73;30.44;101582.16;5281994;28;20463;-73
2022/09/04 11:46:57;;;;;;;3.97;2.53;;;;;;;32.95;30.22;101558.25;5259911;28;20098;-73
2022/09/04 11:49:41;;;;;;;;;;;;;;;34.68;27.67;101569.06;5261237;28;20029;-72
2022/09/04 11:52:27;;;;;;;4.38;2.63;;;;;;;34.51;26.47;101561.81;5263164;28;19912;-73
2022/09/04 11:55:07;;;;;;;5.55;2.67;;;;;;;35.11;26.72;101565.59;5280168;28;20043;-74
2022/09/04 11:57:56;;;;;;;3.40;2.40;;;;;;;34.90;26.55;101566.00;5281503;28;20385;-74
2022/09/04 12:00:42;;;;;;;5.15;2.78;;;;;;;33.99;26.56;101562.56;5282218;28;20032;-73
2022/09/04 12:04:02;;;;;;;5.65;3.25;;;;;;;34.38;28.43;101562.25;5281276;28;20033;-73
2022/09/04 12:06:49;;;;;;;7.05;2.95;;;;;;;33.44;28.99;101571.56;5282179;28;20020;-73
2022/09/04 12:09:27;;;;;;;6.30;2.58;;;;;;;34.12;29.00;101573.00;5279646;28;20028;-74
2022/09/04 12:12:10;;;;;;;3.83;2.40;;;;;;;34.25;28.22;101567.22;5282572;28;20479;-72
2022/09/04 12:15:01;;;;;;;4.75;2.63;;;;;;;33.06;29.04;101566.16;5281851;28;20193;-72
2022/09/04 12:17:55;;;;;;;4.07;2.75;;;;;;;32.27;30.59;101577.28;5282686;28;20379;-73
2022/09/04 12:20:57;;;;;;;5.35;2.50;;;;;;;31.72;31.13;101572.34;5281927;28;20036;-72
2022/09/04 12:23:57;;;;;;;5.45;2.70;;;;;;;31.79;31.24;101584.31;5281707;28;20107;-73
2022/09/04 12:26:50;;;;;;;4.07;2.33;;;;;;;33.04;32.36;101573.59;5281709;28;20056;-73
2022/09/04 12:30:12;;;;;;;4.32;2.70;;;;;;;34.16;29.51;101575.19;5281940;28;20032;-72
2022/09/04 12:33:29;;;;;;;5.47;3.00;;;;;;;34.45;29.09;101571.41;5241696;28;20156;-73
2022/09/04 12:36:37;;;;;;;4.35;2.78;;;;;;;34.19;27.25;101573.22;5282207;28;20427;-73
2022/09/04 12:39:17;;;;;;;4.40;2.80;;;;;;;32.37;28.48;101569.16;5282383;28;20054;-72
2022/09/04 12:42:12;;;;;;;5.50;2.53;;;;;;;32.19;30.07;101588.78;5286307;28;20039;-72
2022/09/04 12:45:17;;;;;;;5.60;2.60;;;;;;;31.38;30.12;101586.13;5285822;28;20036;-73
2022/09/04 12:47:57;;;;;;;4.85;2.40;;;;;;;30.78;31.55;101575.22;5284566;28;20037;-72
2022/09/04 12:50:43;;;;;;;4.38;2.47;;;;;;;30.89;32.55;101564.34;5286154;28;20024;-72
2022/09/04 12:53:30;;;;;;;5.85;2.35;;;;;;;31.64;28.21;101575.78;5285681;28;20375;-73
2022/09/04 12:56:04;;;;;;;5.22;2.08;;;;;;;31.07;28.61;101580.78;5286190;28;20033;-72
2022/09/04 12:58:47;;;;;;;2.70;1.92;;;;;;;31.74;28.42;101579.31;5264746;28;20033;-72
2022/09/04 13:01:30;;;;;;;3.75;2.20;;;;;;;31.36;29.40;101567.41;5265325;28;20122;-73
2022/09/04 13:04:18;;;;;;;3.45;2.25;;;;;;;31.16;30.19;101569.19;5265155;28;20400;-73
2022/09/04 13:07:07;;;;;;;3.83;2.20;;;;;;;31.19;32.05;101565.41;5265201;28;20045;-73
2022/09/04 13:10:09;;;;;;;5.50;2.65;;;;;;;30.89;30.94;101573.28;5264857;28;20144;-72
2022/09/04 13:12:59;;;;;;;;;;;;;;;31.39;29.43;101583.31;5273901;28;20033;-73
2022/09/04 13:16:00;;;;;;;5.20;2.20;;;;;;;32.08;30.59;101586.22;5279298;28;19952;-73
2022/09/04 13:19:10;;;;;;;4.32;2.50;;;;;;;32.71;27.45;101588.44;5239885;28;20147;-73